• Join FlightAware (Why Join?)
  • Login
  • US Flag 
01:56AM EDT


 

Airport Tracker/Info


-or-


 

Live Flight TrackerFlight Track Log ✈ AFL150 ✈ 12-Aug-2013 ✈ UUEE / SVO - MUHA / HAV

Flight Track Log - Related Links

Times and Time Zones

All times are in EDT time to prevent confusion due to time zone crossing. See the AFL150 flight status page for this flight to view local times or setup timezone preferences in your user account.

Time Position Orientation Groundspeed Altitude Reporting Facility
EDT Latitude Longitude Course Direction KTS MPH feet Rate Location/Type
06:41AM 55.9660 37.3820 254° West 188 216 1,000  Level FlightAware
06:41AM 55.9600 37.3460 253° West 182 209 2,200 2,700 Climbing FlightAware
06:42AM 55.9570 37.3240 256° West 179 206 2,700 1,680 Climbing FlightAware
06:42AM 55.9530 37.2950 256° West 189 217 3,200 1,080 Climbing FlightAware
06:42AM 55.9500 37.2680 259° West 208 239 3,400 900 Climbing FlightAware
06:43AM 55.9440 37.2270 255° West 235 270 3,800 900 Climbing FlightAware
06:43AM 55.9430 37.2090 264° West 247 284 3,900 1,800 Climbing FlightAware
06:43AM 55.9470 37.1660 279° West 255 293 4,700 2,700 Climbing FlightAware
06:44AM 55.9530 37.1280 286° West 252 290 5,700 2,400 Climbing FlightAware
06:44AM 55.9640 37.0870 296° West 268 308 6,300 1,860 Climbing FlightAware
06:44AM 55.9780 37.0360 296° West 272 313 7,100 2,220 Climbing FlightAware
06:45AM 55.9860 37.0060 295° West 269 310 7,800 2,700 Climbing FlightAware
06:45AM 56.0000 36.9570 297° West 271 312 8,900 2,700 Climbing FlightAware
06:45AM 56.0080 36.9260 295° West 272 313 9,600 2,040 Climbing FlightAware
06:46AM 56.0300 36.8430 295° West 291 335 10,800 1,320 Climbing FlightAware
06:46AM 56.0510 36.7620 295° West 327 376 11,300 900 Climbing FlightAware
06:47AM 56.0740 36.6760 296° West 356 410 11,900 1,680 Climbing FlightAware
06:48AM 56.1000 36.5780 295° West 361 415 13,400 2,220 Climbing FlightAware
06:48AM 56.1250 36.4820 295° West 372 428 14,500 2,100 Climbing FlightAware
06:49AM 56.1510 36.3850 296° West 376 433 15,800 2,040 Climbing FlightAware
06:49AM 56.1770 36.2850 295° West 383 441 16,900 1,860 Climbing FlightAware
06:50AM 56.2030 36.1860 295° West 391 450 18,000 1,920 Climbing FlightAware
06:51AM 56.2300 36.0810 295° West 394 453 19,200 1,680 Climbing FlightAware
06:51AM 56.2580 35.9730 295° West 407 468 20,000 1,560 Climbing FlightAware
06:52AM 56.2850 35.8650 294° West 411 473 21,100 1,800 Climbing FlightAware
06:52AM 56.3130 35.7560 295° West 415 478 22,100 1,560 Climbing FlightAware
06:53AM 56.3400 35.6480 294° West 422 486 22,900 1,380 Climbing FlightAware
06:53AM 56.3650 35.5490 295° West 428 493 23,600 1,440 Climbing FlightAware
06:54AM 56.4000 35.4180 296° West 436 502 24,600 1,260 Climbing FlightAware
06:55AM 56.4380 35.3090 302° West 452 520 25,200 1,200 Climbing FlightAware
06:55AM 56.4870 35.2070 311° West 463 533 26,000 1,260 Climbing FlightAware
06:56AM 56.5430 35.1170 318° Northwest 476 548 26,700 1,200 Climbing FlightAware
06:56AM 56.6100 35.0410 328° Northwest 488 562 27,400 1,080 Climbing FlightAware
06:57AM 56.6820 34.9840 337° Northwest 503 579 28,000 840 Climbing FlightAware
06:58AM 56.7730 34.9450 347° North 520 598 28,500 660 Climbing FlightAware
06:58AM 56.8750 34.9380 358° North 536 617 29,000 1,020 Climbing FlightAware
06:59AM 56.9880 34.9490 North 535 616 30,000 1,260 Climbing FlightAware
07:00AM 57.0690 34.9530 North 534 615 30,600 960 Climbing FlightAware
07:00AM 57.1570 34.9560 North 535 616 31,100 840 Climbing FlightAware
07:01AM 57.2430 34.9580 North 539 620 31,600 840 Climbing FlightAware
07:01AM 57.3310 34.9610 North 540 621 32,100 1,080 Climbing FlightAware
07:02AM 57.4290 34.9640 North 533 613 33,000 1,200 Climbing FlightAware
07:03AM 57.5160 34.9620 359° North 523 602 33,700 840 Climbing FlightAware
07:03AM 57.5880 34.9470 354° North 519 597 34,000 240 Climbing FlightAware
07:04AM 57.6790 34.9090 347° North 512 589 34,000  Level FlightAware
07:05AM 57.7610 34.8560 341° North 502 578 34,000  Level FlightAware
07:05AM 57.8480 34.7760 334° Northwest 489 563 34,000  Level FlightAware
07:06AM 57.9130 34.7000 328° Northwest 479 551 34,000  Level FlightAware
07:06AM 57.9760 34.6110 323° Northwest 476 548 34,000  Level FlightAware
07:07AM 58.0330 34.5290 323° Northwest 477 549 34,000  Level FlightAware
07:07AM 58.0960 34.4420 324° Northwest 477 549 34,000  Level FlightAware
07:08AM 58.1600 34.3510 323° Northwest 477 549 34,000  Level FlightAware
07:09AM 58.2200 34.2600 321° Northwest 473 544 34,000  Level FlightAware
07:09AM 58.2800 34.1680 321° Northwest 473 544 34,000  Level FlightAware
07:10AM 58.3570 34.0490 321° Northwest 476 548 34,000  Level FlightAware
07:10AM 58.4000 33.9830 321° Northwest 476 548 34,000  Level FlightAware
07:11AM 58.4650 33.8830 321° Northwest 476 548 34,000  Level FlightAware
07:12AM 58.5270 33.7870 321° Northwest 476 548 34,000  Level FlightAware
07:12AM 58.5810 33.7030 321° Northwest 476 548 34,000  Level FlightAware
07:13AM 58.6330 33.6220 321° Northwest 476 548 34,000  Level FlightAware
07:14AM 58.7240 33.4790 321° Northwest 476 548 34,000  Level FlightAware
07:14AM 58.7740 33.3920 318° Northwest 475 547 34,000  Level FlightAware
07:15AM 58.8250 33.3030 318° Northwest 475 547 34,000  Level FlightAware
07:15AM 58.8770 33.2130 318° Northwest 475 547 34,000  Level FlightAware
07:16AM 58.9270 33.1260 318° Northwest 475 547 34,000  Level FlightAware
07:17AM 58.9780 33.0370 318° Northwest 475 547 34,000  Level FlightAware
07:17AM 59.0290 32.9470 318° Northwest 475 547 34,000  Level FlightAware
07:17AM 59.0740 32.8030 301° West 34,000  Level FlightAware
07:18AM 59.0870 32.7770 314° West 473 544 34,000  Level FlightAware
07:18AM 59.1410 32.6690 314° West 472 543 34,000 300 Level FlightAware
07:19AM 59.1940 32.5660 315° West 472 543 34,400 660 Climbing FlightAware
07:19AM 59.2460 32.4600 314° West 472 543 34,800 660 Climbing FlightAware
07:20AM 59.3010 32.3500 314° West 473 544 35,200 660 Climbing FlightAware
07:20AM 59.3470 32.2560 314° West 473 544 35,600 600 Climbing FlightAware
07:21AM 59.4100 32.1190 312° West 469 540 36,000 300 Climbing FlightAware
07:22AM 59.4530 31.9950 304° West 467 537 36,000  Level FlightAware
07:22AM 59.4920 31.8470 297° West 458 527 36,000  Level FlightAware
07:23AM 59.5180 31.7330 294° West 454 522 36,000  Level FlightAware
07:24AM 59.5460 31.5840 290° West 440 506 36,000  Level FlightAware
07:24AM 59.5510 31.4670 275° West 436 502 36,000  Level FlightAware
07:25AM 59.5560 31.3220 274° West 438 504 36,000  Level FlightAware
07:25AM 59.5640 31.1640 276° West 440 506 36,000  Level FlightAware
07:26AM 59.5700 31.0450 276° West 441 507 36,000  Level FlightAware
07:27AM 59.5780 30.8680 275° West 441 507 36,000  Level FlightAware
07:27AM 59.5830 30.7500 275° West 443 510 36,000  Level FlightAware
07:28AM 59.5900 30.5940 275° West 444 511 36,000  Level FlightAware
07:28AM 59.5960 30.4470 275° West 446 513 36,000  Level FlightAware
07:29AM 59.6030 30.2740 275° West 449 517 36,000  Level FlightAware
07:30AM 59.6080 30.1400 274° West 450 518 36,000  Level FlightAware
07:30AM 59.6140 29.9930 275° West 450 518 36,000  Level FlightAware
07:31AM 59.6190 29.8480 274° West 448 516 36,000  Level FlightAware
07:31AM 59.6240 29.7030 274° West 446 513 36,000  Level FlightAware
07:32AM 59.6290 29.5770 275° West 445 512 36,000  Level FlightAware
07:32AM 59.6330 29.4490 274° West 443 510 36,000  Level FlightAware
07:33AM 59.6380 29.2880 274° West 444 511 36,000  Level FlightAware
07:34AM 59.6420 29.1280 273° West 443 510 36,000  Level FlightAware
07:34AM 59.6370 28.9750 266° West 438 504 36,000  Level FlightAware
07:35AM 59.6310 28.8340 265° West 441 507 36,000  Level FlightAware
07:35AM 59.6330 28.6920 272° West 449 517 36,000  Level FlightAware
07:36AM 59.6470 28.5380 280° West 458 527 36,000  Level FlightAware
07:37AM 59.6670 28.4020 286° West 460 529 36,000  Level FlightAware
07:37AM 59.6880 28.2580 286° West 460 529 36,000  Level FlightAware
07:38AM 59.7070 28.1270 286° West 461 531 36,000  Level FlightAware
07:38AM 59.7280 27.9750 285° West 460 529 36,000  Level FlightAware
07:39AM 59.7480 27.8330 286° West 459 528 36,000  Level FlightAware
07:40AM 59.7660 27.7020 285° West 460 529 36,000  Level FlightAware
07:40AM 59.7870 27.5520 286° West 462 532 36,000  Level FlightAware
07:41AM 59.8070 27.4020 285° West 461 531 36,000  Level FlightAware
07:41AM 59.8250 27.2710 285° West 460 529 36,000  Level FlightAware
07:42AM 59.8460 27.1150 285° West 460 529 36,000  Level FlightAware
07:42AM 59.8640 26.9810 285° West 459 528 36,000  Level FlightAware
07:43AM 59.8820 26.8400 284° West 459 528 36,000  Level FlightAware
07:44AM 59.8990 26.7150 285° West 459 528 36,000  Level FlightAware
07:44AM 59.9200 26.5460 284° West 461 531 36,000  Level FlightAware
07:45AM 59.9400 26.4130 287° West 464 534 36,000  Level FlightAware
07:45AM 59.9700 26.2690 293° West 469 540 36,000  Level FlightAware
07:46AM 60.0070 26.1340 299° West 473 544 36,000  Level FlightAware
07:47AM 60.0480 26.0180 305° West 477 549 36,000  Level FlightAware
07:47AM 60.0850 25.8920 301° West 470 541 36,000  Level FlightAware
07:48AM 60.1190 25.7420 295° West 471 542 36,000  Level FlightAware
07:48AM 60.1540 25.5950 296° West 472 543 36,000  Level FlightAware
07:49AM 60.1800 25.4810 295° West 473 544 36,000  Level FlightAware
07:49AM 60.2150 25.3310 295° West 473 544 36,000  Level FlightAware
07:50AM 60.2450 25.2010 295° West 473 544 36,000  Level FlightAware
07:51AM 60.2800 25.0470 295° West 473 544 36,000  Level FlightAware
07:51AM 60.3120 24.9070 295° West 472 543 36,000  Level FlightAware
07:52AM 60.3450 24.7620 295° West 472 543 36,000  Level FlightAware
07:52AM 60.3740 24.6300 294° West 472 543 36,000  Level FlightAware
07:53AM 60.4050 24.4920 295° West 473 544 36,000  Level FlightAware
07:54AM 60.4360 24.3530 294° West 474 545 36,000  Level FlightAware
07:54AM 60.4670 24.2120 294° West 475 547 36,000  Level FlightAware
07:55AM 60.5040 24.0750 299° West 476 548 36,000  Level FlightAware
07:55AM 60.5450 23.9230 299° West 476 548 36,000  Level FlightAware
07:56AM 60.5820 23.7830 298° West 476 548 36,000  Level FlightAware
07:56AM 60.6160 23.6530 298° West 475 547 36,000  Level FlightAware
07:57AM 60.6510 23.5160 298° West 475 547 36,000  Level FlightAware
07:58AM 60.6870 23.3760 298° West 475 547 36,000  Level FlightAware
07:58AM 60.7210 23.2440 298° West 475 547 36,000  Level FlightAware
07:59AM 60.7600 23.0930 298° West 475 547 36,000  Level FlightAware
07:59AM 60.7930 22.9630 298° West 474 545 36,000  Level FlightAware
08:00AM 60.8240 22.8390 297° West 474 545 36,000  Level FlightAware
08:01AM 60.8640 22.6800 297° West 471 542 36,000  Level FlightAware
08:01AM 60.8960 22.5500 297° West 471 542 36,000  Level FlightAware
08:02AM 60.9330 22.4010 297° West 471 542 36,000  Level FlightAware
08:02AM 60.9790 22.2320 299° West 473 544 36,000  Level FlightAware
08:03AM 61.0180 22.1080 303° West 474 545 36,000  Level FlightAware
08:04AM 61.0600 21.9730 303° West 476 548 36,000  Level FlightAware
08:04AM 61.1020 21.8340 302° West 476 548 36,000  Level FlightAware
08:05AM 61.1410 21.7030 302° West 477 549 36,000  Level FlightAware
08:05AM 61.1780 21.5810 302° West 478 550 36,000  Level FlightAware
08:06AM 61.2250 21.4240 302° West 478 550 36,000  Level FlightAware
08:07AM 61.2660 21.2860 302° West 478 550 36,000  Level FlightAware
08:07AM 61.2980 21.1760 301° West 479 551 36,000  Level FlightAware
08:08AM 61.3450 21.0180 302° West 479 551 36,000  Level FlightAware
08:08AM 61.3860 20.8760 301° West 480 552 36,000  Level FlightAware
08:09AM 61.4230 20.7470 301° West 480 552 36,000  Level FlightAware
08:09AM 61.4620 20.6110 301° West 480 552 36,000  Level FlightAware
08:10AM 61.5050 20.4630 301° West 480 552 36,000  Level FlightAware
08:11AM 61.5320 20.3670 301° West 481 554 36,000  Level FlightAware
08:11AM 61.5790 20.1990 301° West 480 552 36,000  Level FlightAware
08:12AM 61.6220 20.0480 301° West 480 552 36,000  Level FlightAware
08:12AM 61.6630 19.9010 300° West 479 551 36,000  Level FlightAware
08:13AM 61.6980 19.7750 300° West 479 551 36,000  Level FlightAware
08:13AM 61.7320 19.6490 300° West 479 551 36,000  Level FlightAware
08:14AM 61.7750 19.4950 301° West 480 552 36,000  Level FlightAware
08:15AM 61.8150 19.3320 298° West 479 551 36,000  Level FlightAware
08:15AM 61.8470 19.1960 297° West 480 552 36,000  Level FlightAware
08:16AM 61.8830 19.0480 297° West 481 554 36,000  Level FlightAware
08:16AM 61.9170 18.9080 297° West 482 555 36,000  Level FlightAware
08:17AM 61.9560 18.7470 297° West 481 554 36,000  Level FlightAware
08:18AM 61.9900 18.6150 299° West 482 555 36,000  Level FlightAware
08:18AM 62.0420 18.5010 314° West 485 558 36,000  Level FlightAware
08:19AM 62.1060 18.3650 315° West 485 558 36,000  Level FlightAware
08:19AM 62.1580 18.2560 316° Northwest 485 558 36,000  Level FlightAware
08:20AM 62.2160 18.1330 315° West 485 558 36,000  Level FlightAware
08:21AM 62.2720 18.0130 315° West 485 558 36,000  Level FlightAware
08:21AM 62.3260 17.8980 315° West 484 557 36,000  Level FlightAware
08:22AM 62.3780 17.7850 315° West 483 556 36,000  Level FlightAware
08:22AM 62.4370 17.6570 315° West 484 557 36,000  Level FlightAware
08:23AM 62.4920 17.5370 315° West 485 558 36,000  Level FlightAware
08:23AM 62.5420 17.4260 314° West 485 558 36,000  Level FlightAware
08:24AM 62.6010 17.2950 314° West 484 557 36,000  Level FlightAware
08:25AM 62.6520 17.1830 315° West 483 556 36,000  Level FlightAware
08:25AM 62.7070 17.0600 314° West 482 555 36,000  Level FlightAware
08:26AM 62.7600 16.9400 314° West 483 556 36,000  Level FlightAware
08:26AM 62.8160 16.8130 314° West 481 554 36,000  Level FlightAware
08:27AM 62.8650 16.7020 314° West 481 554 36,000  Level FlightAware
08:27AM 62.9200 16.5770 314° West 480 552 36,000  Level FlightAware
08:28AM 62.9730 16.4560 314° West 480 552 36,000  Level FlightAware
08:29AM 63.0300 16.3240 314° West 482 555 36,000  Level FlightAware
08:29AM 63.0850 16.1960 314° West 483 556 36,000  Level FlightAware
08:30AM 63.1410 16.0660 314° West 483 556 36,000  Level FlightAware
08:30AM 63.1950 15.9370 313° West 483 556 36,000  Level FlightAware
08:31AM 63.2450 15.8190 313° West 482 555 36,000  Level FlightAware
08:32AM 63.2990 15.6930 314° West 482 555 36,000  Level FlightAware
08:32AM 63.3500 15.5690 313° West 483 556 36,000  Level FlightAware
08:33AM 63.4050 15.4370 313° West 484 557 36,000  Level FlightAware
08:33AM 63.4600 15.3050 313° West 484 557 36,000  Level FlightAware
08:34AM 63.5120 15.1790 313° West 484 557 36,000  Level FlightAware
08:34AM 63.5600 15.0610 312° West 483 556 36,000  Level FlightAware
08:35AM 63.6160 14.9220 312° West 484 557 36,000  Level FlightAware
08:36AM 63.6710 14.7860 312° West 483 556 36,000  Level FlightAware
08:36AM 63.7150 14.6770 312° West 484 557 36,000  Level FlightAware
08:37AM 63.7720 14.5320 312° West 482 555 36,000  Level FlightAware
08:37AM 63.8230 14.4030 312° West 482 555 36,000  Level FlightAware
08:38AM 63.8780 14.2650 312° West 481 554 36,000  Level FlightAware
08:39AM 63.9310 14.1290 312° West 480 552 36,000  Level FlightAware
08:39AM 63.9790 14.0050 311° West 480 552 36,000  Level FlightAware
08:40AM 64.0320 13.8700 312° West 480 552 36,000  Level FlightAware
08:40AM 64.0840 13.7350 311° West 479 551 36,000  Level FlightAware
08:41AM 64.1310 13.6110 311° West 481 554 36,000  Level FlightAware
08:42AM 64.1830 13.4730 311° West 481 554 36,000  Level FlightAware
08:42AM 64.2360 13.3340 311° West 482 555 36,000  Level FlightAware
08:43AM 64.2870 13.1960 310° West 483 556 36,000  Level FlightAware
08:43AM 64.3330 13.0730 311° West 483 556 36,000  Level FlightAware
08:44AM 64.3830 12.9400 311° West 483 556 36,000  Level FlightAware
08:44AM 64.4370 12.7930 310° West 482 555 36,000  Level FlightAware
08:45AM 64.4840 12.6630 310° West 481 554 36,000  Level FlightAware
08:46AM 64.5340 12.5260 310° West 482 555 36,000  Level FlightAware
08:46AM 64.5860 12.3820 310° West 482 555 36,000  Level FlightAware
08:47AM 64.6380 12.2380 310° West 482 555 36,000  Level FlightAware
08:47AM 64.6900 12.0930 310° West 482 555 36,000  Level FlightAware
08:48AM 64.7310 11.9750 309° West 481 554 36,000  Level FlightAware
08:49AM 64.7850 11.8240 310° West 480 552 36,000  Level FlightAware
08:49AM 64.8390 11.6700 310° West 479 551 36,000  Level FlightAware
08:50AM 64.8820 11.5440 309° West 477 549 36,000  Level FlightAware
08:50AM 64.9330 11.3990 310° West 477 549 36,000  Level FlightAware
08:51AM 64.9830 11.2530 309° West 476 548 36,000  Level FlightAware
08:51AM 65.0270 11.1240 309° West 475 547 36,000  Level FlightAware
08:52AM 65.0790 10.9710 309° West 477 549 36,000  Level FlightAware
08:53AM 65.1220 10.8410 308° West 476 548 36,000  Level FlightAware
08:53AM 65.1740 10.6860 309° West 475 547 36,000  Level FlightAware
08:54AM 65.2230 10.5390 309° West 475 547 36,000  Level FlightAware
08:54AM 65.2670 10.4070 309° West 476 548 36,000  Level FlightAware
08:55AM 65.3180 10.2510 308° West 477 549 36,000  Level FlightAware
08:56AM 65.3760 10.0750 308° West 476 548 36,000  Level FlightAware
08:56AM 65.4190 9.9420 308° West 475 547 36,000  Level FlightAware
08:57AM 65.4670 9.7900 307° West 475 547 36,000  Level FlightAware
08:57AM 65.5140 9.6430 308° West 476 548 36,000  Level FlightAware
08:58AM 65.5600 9.4980 308° West 476 548 36,000  Level FlightAware
08:59AM 65.6040 9.3600 308° West 477 549 36,000  Level FlightAware
08:59AM 65.6510 9.2090 307° West 477 549 36,000  Level FlightAware
09:00AM 65.7010 9.0490 307° West 477 549 36,000  Level FlightAware
09:00AM 65.7440 8.9110 307° West 477 549 36,000  Level FlightAware
09:01AM 65.8090 8.6960 306° West 477 549 36,000  Level FlightAware
09:02AM 65.8480 8.5630 306° West 477 549 36,000  Level FlightAware
09:02AM 65.8880 8.4290 306° West 477 549 36,000  Level FlightAware
09:03AM 65.9290 8.2920 306° West 477 549 36,000  Level FlightAware
09:04AM 65.9690 8.1580 306° West 477 549 36,000  Level FlightAware
09:04AM 66.0080 8.0230 305° West 477 549 36,000  Level FlightAware
09:05AM 66.0480 7.8890 306° West 477 549 36,000  Level FlightAware
09:05AM 66.0880 7.7540 306° West 477 549 36,000  Level FlightAware
09:06AM 66.1270 7.6190 306° West 477 549 36,000  Level FlightAware
09:07AM 66.1680 7.4800 306° West 477 549 36,000  Level FlightAware
09:07AM 66.2080 7.3450 306° West 477 549 36,000  Level FlightAware
09:08AM 66.2470 7.2090 305° West 477 549 36,000  Level FlightAware
09:08AM 66.2880 7.0700 306° West 477 549 36,000  Level FlightAware
09:09AM 66.3280 6.9340 306° West 477 549 36,000  Level FlightAware
09:10AM 66.3670 6.7980 306° West 477 549 36,000  Level FlightAware
09:10AM 66.4070 6.6610 306° West 477 549 36,000  Level FlightAware
09:13AM 66.4445 6.0352 279° West  Level Estimated
09:14AM 66.4605 5.7544 278° West  Level Estimated
09:15AM 66.4760 5.4732 278° West  Level Estimated
09:16AM 66.4909 5.1917 278° West  Level Estimated
09:17AM 66.5054 4.9098 277° West  Level Estimated
09:18AM 66.5193 4.6276 277° West  Level Estimated
09:19AM 66.5328 4.3452 277° West  Level Estimated
09:20AM 66.5457 4.0624 277° West  Level Estimated
09:21AM 66.5582 3.7793 276° West  Level Estimated
09:22AM 66.5701 3.4960 276° West  Level Estimated
09:23AM 66.5815 3.2123 276° West  Level Estimated
09:24AM 66.5924 2.9285 276° West  Level Estimated
09:25AM 66.6027 2.6444 275° West  Level Estimated
09:26AM 66.6126 2.3600 275° West  Level Estimated
09:27AM 66.6219 2.0755 275° West  Level Estimated
09:28AM 66.6308 1.7907 275° West  Level Estimated
09:29AM 66.6391 1.5057 274° West  Level Estimated
09:30AM 66.6469 1.2206 274° West  Level Estimated
09:31AM 66.6542 0.9352 274° West  Level Estimated
09:32AM 66.6610 0.6497 274° West  Level Estimated
09:33AM 66.6672 0.3641 273° West  Level Estimated
09:34AM 66.6729 0.0783 273° West  Level Estimated
09:35AM 66.6781 -0.2076 273° West  Level Estimated
09:36AM 66.6828 -0.4936 273° West  Level Estimated
09:37AM 66.6870 -0.7797 272° West  Level Estimated
09:38AM 66.6907 -1.0660 272° West  Level Estimated
09:39AM 66.6938 -1.3522 272° West  Level Estimated
09:40AM 66.6964 -1.6386 271° West  Level Estimated
09:41AM 66.6985 -1.9250 271° West  Level Estimated
09:42AM 66.7001 -2.2115 271° West  Level Estimated
09:43AM 66.7012 -2.4980 271° West  Level Estimated
09:44AM 66.7017 -2.7845 270° West  Level Estimated
09:45AM 66.7017 -3.0710 270° West  Level Estimated
09:46AM 66.7012 -3.3575 270° West  Level Estimated
09:47AM 66.7002 -3.6440 270° West  Level Estimated
09:48AM 66.6986 -3.9304 269° West  Level Estimated
09:49AM 66.6966 -4.2169 269° West  Level Estimated
09:50AM 66.6940 -4.5032 269° West  Level Estimated
09:51AM 66.6909 -4.7895 269° West  Level Estimated
09:52AM 66.6872 -5.0758 268° West  Level Estimated
09:53AM 66.6831 -5.3619 268° West  Level Estimated
09:54AM 66.6784 -5.6479 268° West  Level Estimated
09:55AM 66.6732 -5.9338 268° West  Level Estimated
09:56AM 66.6675 -6.2196 267° West  Level Estimated
09:57AM 66.6613 -6.5053 267° West  Level Estimated
09:58AM 66.6546 -6.7908 267° West  Level Estimated
09:59AM 66.6473 -7.0761 266° West  Level Estimated
10:00AM 66.6395 -7.3613 266° West  Level Estimated
10:01AM 66.6313 -7.6463 266° West  Level Estimated
10:02AM 66.6225 -7.9310 266° West  Level Estimated
10:03AM 66.6131 -8.2156 265° West  Level Estimated
10:04AM 66.6033 -8.5000 265° West  Level Estimated
10:05AM 66.5930 -8.7841 265° West  Level Estimated
10:06AM 66.5821 -9.0680 265° West  Level Estimated
10:07AM 66.5707 -9.3516 264° West  Level Estimated
10:08AM 66.5588 -9.6350 264° West  Level Estimated
10:09AM 66.5464 -9.9181 264° West  Level Estimated
10:10AM 66.5335 -10.2009 264° West  Level Estimated
10:11AM 66.5201 -10.4834 263° West  Level Estimated
10:12AM 66.5062 -10.7656 263° West  Level Estimated
10:13AM 66.4918 -11.0474 263° West  Level Estimated
10:14AM 66.4768 -11.3290 263° West  Level Estimated
10:15AM 66.4614 -11.6102 262° West  Level Estimated
10:16AM 66.4454 -11.8910 262° West  Level Estimated
10:17AM 66.4290 -12.1715 262° West  Level Estimated
10:18AM 66.4120 -12.4516 262° West  Level Estimated
10:19AM 66.3946 -12.7313 261° West  Level Estimated
10:20AM 66.3766 -13.0106 261° West  Level Estimated
10:21AM 66.3581 -13.2895 261° West  Level Estimated
10:22AM 66.3392 -13.5680 260° West  Level Estimated
10:23AM 66.3197 -13.8461 260° West  Level Estimated
10:24AM 66.2998 -14.1237 260° West  Level Estimated
10:25AM 66.2794 -14.4009 260° West  Level Estimated
10:26AM 66.2584 -14.6777 259° West  Level Estimated
10:27AM 66.2370 -14.9539 259° West  Level Estimated
10:28AM 66.2151 -15.2297 259° West  Level Estimated
10:29AM 66.1927 -15.5050 259° West  Level Estimated
10:30AM 66.1698 -15.7799 258° West  Level Estimated
10:31AM 66.1464 -16.0542 258° West  Level Estimated
10:32AM 66.1225 -16.3280 258° West  Level Estimated
10:33AM 66.0982 -16.6013 258° West  Level Estimated
10:34AM 66.0733 -16.8740 257° West  Level Estimated
10:35AM 66.0480 -17.1463 257° West  Level Estimated
10:36AM 66.0222 -17.4179 257° West  Level Estimated
10:37AM 65.9960 -17.6891 257° West  Level Estimated
10:38AM 65.9692 -17.9596 256° West  Level Estimated
10:39AM 65.9420 -18.2296 256° West  Level Estimated
10:40AM 65.9143 -18.4990 256° West  Level Estimated
10:41AM 65.8862 -18.7678 256° West  Level Estimated
10:42AM 65.8575 -19.0361 255° West  Level Estimated
10:43AM 65.8284 -19.3037 255° West  Level Estimated
10:44AM 65.7989 -19.5707 255° West  Level Estimated
10:45AM 65.7689 -19.8371 255° West  Level Estimated
10:46AM 65.7384 -20.1029 255° West  Level Estimated
10:47AM 65.7074 -20.3680 254° West  Level Estimated
10:48AM 65.6760 -20.6325 254° West  Level Estimated
10:49AM 65.6441 -20.8964 254° West  Level Estimated
10:50AM 65.6118 -21.1596 254° West  Level Estimated
10:51AM 65.5790 -21.4221 253° West  Level Estimated
10:52AM 65.5458 -21.6840 253° West  Level Estimated
10:53AM 65.5121 -21.9452 253° West  Level Estimated
10:54AM 65.4780 -22.2058 253° West  Level Estimated
10:55AM 65.4434 -22.4656 252° West  Level Estimated
10:56AM 65.4084 -22.7248 252° West  Level Estimated
10:57AM 65.3729 -22.9832 252° West  Level Estimated
10:58AM 65.3370 -23.2410 252° West  Level Estimated
10:59AM 65.3007 -23.4980 251° West  Level Estimated
11:00AM 65.2639 -23.7544 251° West  Level Estimated
11:01AM 65.2267 -24.0100 251° West  Level Estimated
11:02AM 65.1891 -24.2649 251° West  Level Estimated
11:03AM 65.1510 -24.5191 250° West  Level Estimated
11:04AM 65.1125 -24.7725 250° West  Level Estimated
11:05AM 65.0736 -25.0252 250° West  Level Estimated
11:06AM 65.0342 -25.2772 250° West  Level Estimated
11:07AM 64.9945 -25.5284 250° West  Level Estimated
11:08AM 64.9543 -25.7789 249° West  Level Estimated
11:09AM 64.9137 -26.0286 249° West  Level Estimated
11:10AM 64.8726 -26.2775 249° West  Level Estimated
11:11AM 64.8312 -26.5257 249° West  Level Estimated
11:12AM 64.7893 -26.7732 248° West  Level Estimated
11:13AM 64.7470 -27.0198 248° West  Level Estimated
11:14AM 64.7044 -27.2657 248° West  Level Estimated
11:15AM 64.6613 -27.5108 248° West  Level Estimated
11:16AM 64.6178 -27.7551 248° West  Level Estimated
11:17AM 64.5739 -27.9986 247° West  Level Estimated
11:18AM 64.5296 -28.2414 247° West  Level Estimated
11:19AM 64.4849 -28.4834 247° West  Level Estimated
11:20AM 64.4398 -28.7245 247° West  Level Estimated
11:21AM 64.3944 -28.9649 246° West  Level Estimated
11:22AM 64.3485 -29.2045 246° West  Level Estimated
11:23AM 64.3022 -29.4432 246° West  Level Estimated
11:24AM 64.2520 -29.6992 246° West  Level Estimated
11:25AM 64.2014 -29.9543 246° West  Level Estimated
11:26AM 64.1503 -30.2084 245° Southwest  Level Estimated
11:27AM 64.0988 -30.4616 245° Southwest  Level Estimated
11:28AM 64.0468 -30.7139 245° Southwest  Level Estimated
11:29AM 63.9944 -30.9652 245° Southwest  Level Estimated
11:30AM 63.9415 -31.2156 244° Southwest  Level Estimated
11:31AM 63.8883 -31.4650 244° Southwest  Level Estimated
11:32AM 63.8346 -31.7135 244° Southwest  Level Estimated
11:33AM 63.7804 -31.9610 244° Southwest  Level Estimated
11:34AM 63.7259 -32.2076 244° Southwest  Level Estimated
11:35AM 63.6710 -32.4532 243° Southwest  Level Estimated
11:36AM 63.6156 -32.6978 243° Southwest  Level Estimated
11:37AM 63.5598 -32.9416 243° Southwest  Level Estimated
11:38AM 63.5036 -33.1843 243° Southwest  Level Estimated
11:39AM 63.4469 -33.4261 242° Southwest  Level Estimated
11:40AM 63.3899 -33.6670 242° Southwest  Level Estimated
11:41AM 63.3325 -33.9068 242° Southwest  Level Estimated
11:42AM 63.2747 -34.1457 242° Southwest  Level Estimated
11:43AM 63.2164 -34.3837 242° Southwest  Level Estimated
11:44AM 63.1578 -34.6207 241° Southwest  Level Estimated
11:45AM 63.0988 -34.8568 241° Southwest  Level Estimated
11:46AM 63.0394 -35.0918 241° Southwest  Level Estimated
11:47AM 62.9796 -35.3260 241° Southwest  Level Estimated
11:48AM 62.9194 -35.5591 241° Southwest  Level Estimated
11:49AM 62.8589 -35.7913 240° Southwest  Level Estimated
11:50AM 62.7979 -36.0226 240° Southwest  Level Estimated
11:51AM 62.7366 -36.2529 240° Southwest  Level Estimated
11:52AM 62.6749 -36.4822 240° Southwest  Level Estimated
11:53AM 62.6128 -36.7106 239° Southwest  Level Estimated
11:54AM 62.5504 -36.9380 239° Southwest  Level Estimated
11:55AM 62.4876 -37.1645 239° Southwest  Level Estimated
11:56AM 62.4244 -37.3900 239° Southwest  Level Estimated
11:57AM 62.3609 -37.6145 239° Southwest  Level Estimated
11:58AM 62.2970 -37.8382 238° Southwest  Level Estimated
11:59AM 62.2327 -38.0608 238° Southwest  Level Estimated
12:00PM 62.1681 -38.2825 238° Southwest  Level Estimated
12:01PM 62.1032 -38.5033 238° Southwest  Level Estimated
12:02PM 62.0379 -38.7231 238° Southwest  Level Estimated
12:03PM 61.9722 -38.9420 238° Southwest  Level Estimated
12:04PM 61.9062 -39.1599 237° Southwest  Level Estimated
12:05PM 61.8399 -39.3769 237° Southwest  Level Estimated
12:06PM 61.7732 -39.5929 237° Southwest  Level Estimated
12:07PM 61.7062 -39.8080 237° Southwest  Level Estimated
12:08PM 61.6388 -40.0222 237° Southwest  Level Estimated
12:09PM 61.5711 -40.2354 236° Southwest  Level Estimated
12:10PM 61.5031 -40.4478 236° Southwest  Level Estimated
12:11PM 61.4347 -40.6591 236° Southwest  Level Estimated
12:12PM 61.3661 -40.8696 236° Southwest  Level Estimated
12:13PM 61.2971 -41.0791 236° Southwest  Level Estimated
12:14PM 61.2277 -41.2877 235° Southwest  Level Estimated
12:15PM 61.1581 -41.4954 235° Southwest  Level Estimated
12:16PM 61.0881 -41.7022 235° Southwest  Level Estimated
12:17PM 61.0179 -41.9080 235° Southwest  Level Estimated
12:17PM 62.4450 -48.7690 235° Southwest 478 550 37,000  Level FlightAware
12:17PM 62.3960 -48.9090 233° Southwest 480 552 37,000  Level FlightAware
12:18PM 60.9473 -42.1130 235° Southwest  Level Estimated
12:18PM 62.3390 -49.0680 232° Southwest 480 552 37,000  Level FlightAware
12:19PM 62.2780 -49.2390 233° Southwest 479 551 37,000  Level FlightAware
12:19PM 62.2270 -49.3820 233° Southwest 478 550 37,000  Level FlightAware
12:20PM 62.1590 -49.5670 232° Southwest 477 549 37,000  Level FlightAware
12:21PM 62.1140 -49.6870 231° Southwest 476 548 37,000  Level FlightAware
12:21PM 62.0700 -49.8060 232° Southwest 476 548 37,000  Level FlightAware
12:22PM 62.0270 -49.9170 230° Southwest 476 548 37,000  Level FlightAware
12:23PM 61.9690 -50.0850 234° Southwest 477 549 37,000  Level FlightAware
12:23PM 61.9120 -50.2720 237° Southwest 476 548 37,000  Level FlightAware
12:24PM 61.8750 -50.3870 236° Southwest 475 547 37,000  Level FlightAware
12:24PM 61.8420 -50.4880 235° Southwest 475 547 37,000  Level FlightAware
12:25PM 61.7780 -50.6840 235° Southwest 476 548 37,000  Level FlightAware
12:26PM 61.7380 -50.8040 235° Southwest 476 548 37,000  Level FlightAware
12:27PM 61.6740 -50.9940 235° Southwest 478 550 37,000  Level FlightAware
12:27PM 61.6340 -51.1100 234° Southwest 478 550 37,000  Level FlightAware
12:28PM 61.5940 -51.2250 234° Southwest 478 550 37,000  Level FlightAware
12:28PM 61.5530 -51.3430 234° Southwest 478 550 37,000  Level FlightAware
12:29PM 61.4860 -51.5510 236° Southwest 482 555 37,000  Level FlightAware
12:30PM 61.4440 -51.6730 234° Southwest 482 555 37,000  Level FlightAware
12:30PM 61.4060 -51.7820 234° Southwest 482 555 37,000  Level FlightAware
12:31PM 61.3680 -51.8910 234° Southwest 482 555 37,000  Level FlightAware
12:31PM 61.3280 -52.0060 234° Southwest 482 555 37,000  Level FlightAware
12:32PM 61.2880 -52.1210 234° Southwest 482 555 37,000  Level FlightAware
12:33PM 61.2470 -52.2390 234° Southwest 482 555 37,000  Level FlightAware
12:33PM 61.2050 -52.3570 234° Southwest 482 555 37,000  Level FlightAware
12:34PM 61.1650 -52.4720 234° Southwest 482 555 37,000  Level FlightAware
12:34PM 61.1250 -52.5860 234° Southwest 482 555 37,000  Level FlightAware
12:35PM 61.0850 -52.7000 234° Southwest 482 555 37,000  Level FlightAware
12:36PM 61.0440 -52.8170 234° Southwest 482 555 37,000  Level FlightAware
12:36PM 61.0040 -52.9310 234° Southwest 482 555 37,000  Level FlightAware
12:37PM 60.9630 -53.0450 233° Southwest 482 555 37,000  Level FlightAware
12:37PM 60.9220 -53.1620 234° Southwest 482 555 37,000  Level FlightAware
12:38PM 60.8820 -53.2750 234° Southwest 482 555 37,000  Level FlightAware
12:39PM 60.8400 -53.3950 234° Southwest 482 555 37,000  Level FlightAware
12:41PM 60.7057 -53.7506 232° Southwest  Level FlightAware Approximate
12:42PM 60.6307 -53.9468 232° Southwest  Level FlightAware Approximate
12:43PM 60.5555 -54.1421 232° Southwest  Level FlightAware Approximate
12:44PM 60.4799 -54.3366 232° Southwest  Level FlightAware Approximate
12:45PM 60.4041 -54.5301 232° Southwest  Level FlightAware Approximate
12:46PM 60.3279 -54.7227 231° Southwest  Level FlightAware Approximate
12:47PM 60.2515 -54.9144 231° Southwest  Level FlightAware Approximate
12:48PM 60.1747 -55.1057 231° Southwest  Level FlightAware Approximate
12:49PM 60.0975 -55.2961 231° Southwest  Level FlightAware Approximate
12:50PM 60.0201 -55.4857 231° Southwest  Level FlightAware Approximate
12:51PM 59.9425 -55.6743 231° Southwest  Level FlightAware Approximate
12:52PM 59.8645 -55.8620 230° Southwest  Level FlightAware Approximate
12:53PM 59.7863 -56.0489 230° Southwest  Level FlightAware Approximate
12:54PM 59.7078 -56.2349 230° Southwest  Level FlightAware Approximate
12:55PM 59.6291 -56.4200 230° Southwest  Level FlightAware Approximate
12:56PM 59.5501 -56.6043 230° Southwest  Level FlightAware Approximate
12:57PM 59.4708 -56.7877 230° Southwest  Level FlightAware Approximate
12:57PM 59.1667 -57.4500 217° Southwest 490 564 37,000  Level Gander Center
12:58PM 59.3913 -56.9702 229° Southwest  Level FlightAware Approximate
12:58PM 59.0833 -57.6500 231° Southwest 490 564 37,000  Level Gander Center
12:59PM 59.2950 -57.1144 217° Southwest  Level Estimated
01:00PM 59.1986 -57.2577 217° Southwest  Level Estimated
01:00PM 58.9000 -58.0333 227° Southwest 490 564 37,000  Level Gander Center
01:01PM 58.8167 -58.2500 233° Southwest 490 564 37,000  Level Gander Center
01:02PM 58.7167 -58.4333 224° Southwest 490 564 37,000  Level Gander Center
01:03PM 58.6167 -58.6000 221° Southwest 490 564 37,000  Level Gander Center
01:04PM 58.5000 -58.7000 204° Southwest 490 564 37,000  Level Gander Center
01:05PM 58.3833 -58.8333 211° Southwest 490 564 37,000  Level Gander Center
01:06PM 58.2667 -58.9667 211° Southwest 480 552 37,000  Level Gander Center
01:07PM 58.1500 -59.0667 204° Southwest 480 552 37,000  Level Gander Center
01:08PM 58.0167 -59.2000 208° Southwest 480 552 37,000  Level Gander Center
01:09PM 57.9000 -59.3333 211° Southwest 480 552 37,000  Level Gander Center
01:10PM 57.7833 -59.4667 211° Southwest 490 564 37,000  Level Gander Center
01:11PM 57.6833 -59.5667 208° Southwest 480 552 37,000  Level Gander Center
01:12PM 57.5667 -59.7000 212° Southwest 490 564 37,000  Level Gander Center
01:13PM 57.4333 -59.8333 208° Southwest 480 552 37,000  Level Gander Center
01:14PM 57.3167 -59.9500 208° Southwest 490 564 37,000  Level Gander Center
01:15PM 57.2000 -60.0833 212° Southwest 480 552 37,000  Level Gander Center
01:16PM 57.0833 -60.1833 205° Southwest 460 529 37,000  Level Gander Center
01:17PM 56.9667 -60.3000 209° Southwest 470 541 37,000  Level Gander Center
01:18PM 56.8500 -60.4333 212° Southwest 480 552 37,000  Level Gander Center
01:19PM 56.7333 -60.5167 201° Southwest 480 552 37,000  Level Gander Center
01:20PM 56.6167 -60.6500 212° Southwest 470 541 37,000  Level Gander Center
01:21PM 56.5000 -60.7667 209° Southwest 470 541 37,000  Level Gander Center
01:22PM 56.4000 -60.8667 209° Southwest 470 541 37,000  Level Gander Center
01:23PM 56.2667 -60.9833 206° Southwest 480 552 37,000  Level Gander Center
01:24PM 56.1667 -61.0667 205° Southwest 470 541 37,000  Level Gander Center
01:25PM 56.0333 -61.2000 209° Southwest 480 552 37,000  Level Gander Center
01:26PM 55.9167 -61.3167 209° Southwest 480 552 37,000  Level Gander Center
01:27PM 55.8000 -61.4333 209° Southwest 480 552 37,000  Level Gander Center
01:28PM 55.6833 -61.5167 202° Southwest 480 552 37,000  Level Gander Center
01:29PM 55.5667 -61.6333 209° Southwest 470 541 37,000  Level Gander Center
01:30PM 55.4500 -61.7500 210° Southwest 470 541 37,000  Level Gander Center
01:31PM 55.3333 -61.8333 202° Southwest 470 541 37,000  Level Gander Center
01:32PM 55.2167 -61.9500 210° Southwest 470 541 37,000  Level Gander Center
01:33PM 55.1167 -62.0333 205° Southwest 470 541 37,000  Level Gander Center
01:34PM 54.9833 -62.1500 207° Southwest 470 541 37,000  Level Gander Center
01:35PM 54.8833 -62.2667 214° Southwest 460 529 37,000  Level Gander Center
01:36PM 54.7500 -62.3500 200° South 470 541 37,000  Level Gander Center
01:37PM 54.6500 -62.4667 214° Southwest 460 529 37,000  Level Gander Center
01:38PM 54.5333 -62.5500 203° Southwest 460 529 37,000  Level Gander Center
01:39PM 54.4000 -62.6667 207° Southwest 460 529 37,000  Level Gander Center
01:40PM 54.2833 -62.7667 207° Southwest 460 529 37,000  Level Gander Center
01:41PM 54.1667 -62.8500 203° Southwest 460 529 37,000  Level Gander Center
01:42PM 54.0667 -62.9333 206° Southwest 460 529 37,000  Level Gander Center
01:43PM 53.9500 -63.0500 210° Southwest 460 529 37,000  Level Gander Center
01:45PM 53.7333 -63.2333 207° Southwest 470 541 37,000  Level Moncton Center
01:46PM 53.6000 -63.3333 204° Southwest 460 529 37,000  Level Moncton Center
01:47PM 53.4833 -63.4167 203° Southwest 470 541 37,000  Level Moncton Center
01:48PM 53.3667 -63.5333 211° Southwest 460 529 37,000  Level Moncton Center
01:50PM 53.1333 -63.7000 203° Southwest 460 529 37,000  Level Moncton Center
01:51PM 53.0167 -63.7833 203° Southwest 460 529 37,000 360 Level Moncton Center
01:52PM 52.9167 -63.8667 207° Southwest 460 529 37,800 480 Climbing Moncton Center
01:53PM 52.7833 -63.9833 208° Southwest 460 529 38,000 60 Climbing Moncton Center
01:54PM 52.6833 -64.0667 207° Southwest 460 529 38,000  Level Moncton Center
01:55PM 52.5500 -64.1500 201° Southwest 460 529 38,000  Level Moncton Center
01:56PM 52.4500 -64.2667 215° Southwest 460 529 38,000  Level Moncton Center
01:57PM 52.3333 -64.3500 204° Southwest 460 529 38,000  Level Moncton Center
01:58PM 52.2167 -64.4167 199° South 460 529 38,000  Level Moncton Center
01:59PM 52.1000 -64.5000 204° Southwest 460 529 38,000  Level Moncton Center
02:00PM 51.9833 -64.6167 212° Southwest 450 518 38,000  Level Moncton Center
02:01PM 51.8833 -64.7000 207° Southwest 450 518 38,000  Level Moncton Center
02:02PM 51.7500 -64.7833 201° Southwest 460 529 38,000  Level Moncton Center
02:03PM 51.6500 -64.8500 202° Southwest 460 529 38,000  Level Moncton Center
02:04PM 51.5167 -64.9333 201° Southwest 460 529 38,000  Level Moncton Center
02:05PM 51.4167 -65.0333 212° Southwest 460 529 38,000  Level Moncton Center
02:06PM 51.3000 -65.1167 204° Southwest 450 518 38,000  Level Moncton Center
02:07PM 51.1833 -65.2000 204° Southwest 440 506 38,000  Level Moncton Center
02:08PM 51.0833 -65.2833 208° Southwest 430 495 38,000  Level Moncton Center
02:09PM 50.9667 -65.3500 200° South 430 495 38,000  Level Moncton Center
02:10PM 50.8667 -65.4333 208° Southwest 430 495 38,000  Level Moncton Center
02:11PM 50.7333 -65.5000 198° South 430 495 38,000  Level Moncton Center
02:12PM 50.6333 -65.5833 208° Southwest 430 495 38,000  Level Moncton Center
02:13PM 50.5167 -65.6667 204° Southwest 440 506 38,000  Level Moncton Center
02:14PM 50.4167 -65.7333 203° Southwest 440 506 38,000  Level Moncton Center
02:15PM 50.3000 -65.8167 205° Southwest 440 506 38,000  Level Moncton Center
02:16PM 50.1833 -65.8833 200° South 440 506 38,000  Level Moncton Center
02:17PM 50.0833 -65.9667 208° Southwest 440 506 38,000  Level Moncton Center
02:18PM 49.9667 -66.0667 209° Southwest 440 506 38,000  Level Moncton Center
02:19PM 49.8667 -66.1333 203° Southwest 440 506 38,000  Level Moncton Center
02:20PM 49.7500 -66.2167 205° Southwest 440 506 38,000  Level Moncton Center
02:21PM 49.6333 -66.2833 200° South 440 506 38,000  Level Moncton Center
02:22PM 49.5167 -66.3500 200° South 440 506 38,000  Level Moncton Center
02:23PM 49.4000 -66.4333 205° Southwest 440 506 38,000  Level Moncton Center
02:24PM 49.3000 -66.5000 204° Southwest 440 506 38,000  Level Moncton Center
02:25PM 49.1833 -66.5667 200° South 440 506 38,000  Level Moncton Center
02:26PM 49.0667 -66.6500 205° Southwest 440 506 38,000  Level Moncton Center
02:27PM 48.9500 -66.7167 201° Southwest 440 506 38,000  Level Moncton Center
02:28PM 48.8500 -66.7833 204° Southwest 440 506 38,000  Level Moncton Center
02:29PM 48.7333 -66.8667 205° Southwest 440 506 38,000  Level Moncton Center
02:30PM 48.6333 -66.9333 204° Southwest 440 506 38,000  Level Moncton Center
02:31PM 48.5000 -67.0000 198° South 440 506 38,000  Level Moncton Center
02:32PM 48.4000 -67.1000 214° Southwest 440 506 38,000 60 Level Moncton Center
02:33PM 48.3000 -67.1833 209° Southwest 440 506 38,200 480 Climbing Moncton Center
02:34PM 48.1833 -67.2667 205° Southwest 440 506 39,000 360 Climbing Moncton Center
02:35PM 48.0833 -67.3500 209° Southwest 440 506 39,000  Level Moncton Center
02:36PM 47.9667 -67.4500 210° Southwest 440 506 39,000  Level Moncton Center
02:41PM 47.3950 -67.9060 210° Southwest 438 504 39,000  Level FlightAware
02:42PM 47.3240 -67.9620 208° Southwest 437 503 39,000  Level FlightAware
02:42PM 47.2770 -67.9980 207° Southwest 437 503 39,000  Level FlightAware
02:43PM 47.2110 -68.0480 207° Southwest 437 503 39,000  Level FlightAware
02:43PM 47.2090 -68.0490 199° South 438 504 39,000  Level FlightAware
02:44PM 47.2110 -68.0480 19° North 438 504 39,000  Level FlightAware
02:45PM 47.2120 -68.0470 34° Northeast 437 503 39,000  Level FlightAware
02:45PM 46.9400 -68.2550 208° Southwest 534 615 39,000  Level FlightAware
02:46PM 46.8650 -68.3110 207° Southwest 435 501 39,000  Level FlightAware
02:47PM 46.8050 -68.3570 208° Southwest 433 498 39,000  Level FlightAware
02:47PM 46.7440 -68.4030 207° Southwest 432 497 39,000  Level FlightAware
02:48PM 46.6810 -68.4500 207° Southwest 432 497 39,000  Level FlightAware
02:48PM 46.6190 -68.4960 207° Southwest 432 497 39,000  Level FlightAware
02:49PM 46.5560 -68.5430 207° Southwest 429 494 39,000  Level FlightAware
02:49PM 46.5010 -68.5850 208° Southwest 427 491 39,000  Level FlightAware
02:50PM 46.4320 -68.6350 207° Southwest 426 490 39,000  Level FlightAware
02:51PM 46.3750 -68.6780 207° Southwest 424 488 39,000  Level FlightAware
02:51PM 46.3040 -68.7300 207° Southwest 423 487 39,000  Level FlightAware
02:52PM 46.2430 -68.7760 208° Southwest 422 486 39,000  Level FlightAware
02:52PM 46.1820 -68.8200 207° Southwest 420 483 39,000  Level FlightAware
02:53PM 46.1220 -68.8640 207° Southwest 419 482 39,000  Level FlightAware
02:54PM 46.0550 -68.9130 207° Southwest 420 483 39,000  Level FlightAware
02:54PM 46.0000 -68.9530 207° Southwest 419 482 39,000  Level FlightAware
02:55PM 45.9420 -68.9950 207° Southwest 416 479 39,000  Level FlightAware
02:55PM 45.8790 -69.0410 207° Southwest 415 478 39,000  Level FlightAware
02:56PM 45.8220 -69.0830 207° Southwest 414 476 39,000  Level FlightAware
02:56PM 45.7640 -69.1250 207° Southwest 412 474 39,000  Level FlightAware
02:57PM 45.6960 -69.1740 207° Southwest 410 472 39,000  Level FlightAware
02:58PM 45.6560 -69.2020 206° Southwest 409 471 39,000  Level FlightAware
02:58PM 45.5880 -69.2510 207° Southwest 407 468 39,000  Level FlightAware
02:59PM 45.5240 -69.2970 207° Southwest 405 466 39,000  Level FlightAware
03:00PM 45.4530 -69.3470 206° Southwest 405 466 39,000  Level FlightAware
03:00PM 45.3880 -69.3940 207° Southwest 404 465 39,000  Level FlightAware
03:01PM 45.3340 -69.4320 206° Southwest 406 467 39,000  Level FlightAware
03:02PM 45.2540 -69.4880 206° Southwest 407 468 39,000  Level FlightAware
03:02PM 45.1950 -69.5300 207° Southwest 406 467 39,000  Level FlightAware
03:03PM 45.1220 -69.5820 207° Southwest 405 466 39,000  Level FlightAware
03:03PM 45.0750 -69.6150 206° Southwest 405 466 39,000  Level FlightAware
03:04PM 44.9900 -69.6740 206° Southwest 406 467 39,000  Level FlightAware
03:05PM 44.9300 -69.7160 206° Southwest 407 468 39,000  Level FlightAware
03:05PM 44.8750 -69.7540 206° Southwest 408 470 39,000  Level FlightAware
03:06PM 44.8160 -69.7960 207° Southwest 409 471 39,000 -360 Level FlightAware
03:06PM 44.7570 -69.8360 206° Southwest 411 473 38,600 -900 Descending FlightAware
03:07PM 44.6940 -69.8800 206° Southwest 421 484 38,000 -540 Descending FlightAware
03:08PM 44.6380 -69.9190 206° Southwest 422 486 38,000  Level FlightAware
03:08PM 44.5720 -69.9640 206° Southwest 421 484 38,000  Level FlightAware
03:09PM 44.5100 -70.0070 206° Southwest 423 487 38,000  Level FlightAware
03:09PM 44.4450 -70.0510 206° Southwest 421 484 38,000  Level FlightAware
03:10PM 44.3870 -70.0910 206° Southwest 419 482 38,000  Level FlightAware
03:11PM 44.3310 -70.1300 206° Southwest 415 478 38,000  Level FlightAware
03:11PM 44.2690 -70.1710 205° Southwest 412 474 38,000  Level FlightAware
03:12PM 44.2080 -70.2130 206° Southwest 411 473 38,000  Level FlightAware
03:12PM 44.1460 -70.2550 206° Southwest 410 472 38,000  Level FlightAware
03:13PM 44.0830 -70.2980 206° Southwest 409 471 38,000  Level FlightAware
03:13PM 44.0270 -70.3350 205° Southwest 411 473 38,000  Level FlightAware
03:14PM 43.9670 -70.3760 206° Southwest 413 475 38,000  Level FlightAware
03:15PM 43.9030 -70.4190 206° Southwest 413 475 38,000  Level FlightAware
03:15PM 43.8490 -70.4550 206° Southwest 413 475 38,000  Level FlightAware
03:16PM 43.7870 -70.4970 206° Southwest 414 476 38,000  Level FlightAware
03:16PM 43.7290 -70.5350 205° Southwest 415 478 38,000  Level FlightAware
03:17PM 43.6690 -70.5750 206° Southwest 416 479 38,000  Level FlightAware
03:18PM 43.6030 -70.6190 206° Southwest 417 480 38,000  Level FlightAware
03:18PM 43.5470 -70.6560 206° Southwest 417 480 38,000  Level FlightAware
03:19PM 43.4860 -70.6960 205° Southwest 418 481 38,000  Level FlightAware
03:19PM 43.4250 -70.7370 206° Southwest 419 482 38,000  Level FlightAware
03:20PM 43.3560 -70.7820 205° Southwest 421 484 38,000  Level FlightAware
03:20PM 43.2990 -70.8190 205° Southwest 421 484 38,000  Level FlightAware
03:21PM 43.2380 -70.8590 206° Southwest 420 483 38,000  Level FlightAware
03:22PM 43.1740 -70.9020 206° Southwest 420 483 38,000  Level FlightAware
03:22PM 43.1170 -70.9380 205° Southwest 420 483 38,000  Level FlightAware
03:23PM 43.0600 -70.9760 206° Southwest 420 483 38,000  Level FlightAware
03:23PM 42.9910 -71.0200 205° Southwest 420 483 38,000  Level FlightAware
03:24PM 42.9280 -71.0630 207° Southwest 418 481 38,000  Level FlightAware
03:25PM 42.8790 -71.1100 215° Southwest 412 474 38,000  Level FlightAware
03:25PM 42.8220 -71.1660 216° Southwest 414 476 38,000  Level FlightAware
03:26PM 42.7670 -71.2210 216° Southwest 415 478 38,000  Level FlightAware
03:26PM 42.7140 -71.2720 215° Southwest 418 481 38,000  Level FlightAware
03:27PM 42.6570 -71.3280 216° Southwest 420 483 38,000  Level FlightAware
03:27PM 42.6010 -71.3830 216° Southwest 421 484 38,000  Level FlightAware
03:28PM 42.5500 -71.4340 216° Southwest 421 484 38,000  Level FlightAware
03:29PM 42.4940 -71.4880 215° Southwest 421 484 38,000  Level FlightAware
03:29PM 42.4380 -71.5420 215° Southwest 421 484 38,000  Level FlightAware
03:30PM 42.3810 -71.5970 215° Southwest 421 484 38,000  Level FlightAware
03:30PM 42.3300 -71.6470 216° Southwest 420 483 38,000  Level FlightAware
03:31PM 42.2690 -71.7060 216° Southwest 420 483 38,000  Level FlightAware
03:32PM 42.2130 -71.7600 216° Southwest 420 483 38,000  Level FlightAware
03:32PM 42.1560 -71.8150 216° Southwest 421 484 38,000  Level FlightAware
03:33PM 42.1050 -71.8640 215° Southwest 421 484 38,000  Level FlightAware
03:33PM 42.0490 -71.9170 215° Southwest 422 486 38,000  Level FlightAware
03:34PM 41.9930 -71.9700 215° Southwest 424 488 38,000  Level FlightAware
03:35PM 41.9310 -72.0290 215° Southwest 425 489 38,000  Level FlightAware
03:35PM 41.8840 -72.0740 215° Southwest 427 491 38,000  Level FlightAware
03:36PM 41.8270 -72.1290 216° Southwest 428 493 38,000  Level FlightAware
03:36PM 41.7840 -72.1700 215° Southwest 430 495 38,000  Level FlightAware
03:37PM 41.7250 -72.2250 215° Southwest 429 494 38,000  Level FlightAware
03:37PM 41.6660 -72.2810 215° Southwest 430 495 38,000  Level FlightAware
03:38PM 41.5980 -72.3450 215° Southwest 430 495 38,000  Level FlightAware
03:39PM 41.5360 -72.4030 215° Southwest 429 494 38,000  Level FlightAware
03:39PM 41.4770 -72.4580 215° Southwest 430 495 38,000  Level FlightAware
03:40PM 41.4060 -72.5240 215° Southwest 432 497 38,000  Level FlightAware
03:41PM 41.3490 -72.5770 215° Southwest 432 497 38,000  Level FlightAware
03:41PM 41.2970 -72.6250 215° Southwest 433 498 38,000  Level FlightAware
03:42PM 41.2280 -72.6900 215° Southwest 433 498 38,000  Level FlightAware
03:42PM 41.1800 -72.7340 215° Southwest 432 497 38,000  Level FlightAware
03:43PM 41.1230 -72.7870 215° Southwest 432 497 38,000  Level FlightAware
03:44PM 41.0580 -72.8470 215° Southwest 432 497 38,000  Level FlightAware
03:44PM 41.0080 -72.8930 215° Southwest 431 496 38,000  Level FlightAware
03:45PM 40.9430 -72.9520 214° Southwest 431 496 38,000  Level FlightAware
03:45PM 40.8922 -72.9988 215° Southwest 431 496 38,000  Level FlightAware ADS-B
03:46PM 40.8372 -73.0491 215° Southwest 431 496 38,000  Level FlightAware ADS-B
03:46PM 40.7870 -73.0949 215° Southwest 429 494 38,000  Level FlightAware ADS-B
03:47PM 40.7366 -73.1407 215° Southwest 428 493 38,000  Level FlightAware ADS-B
03:47PM 40.6839 -73.1886 215° Southwest 426 490 38,000  Level FlightAware ADS-B
03:48PM 40.6352 -73.2328 215° Southwest 426 490 38,000  Level FlightAware ADS-B
03:48PM 40.5845 -73.2787 215° Southwest 425 489 38,000  Level FlightAware ADS-B
03:49PM 40.5321 -73.3259 214° Southwest 424 488 38,000  Level FlightAware ADS-B
03:49PM 40.4830 -73.3701 214° Southwest 423 487 38,000  Level FlightAware ADS-B
03:50PM 40.4340 -73.4140 214° Southwest 422 486 38,000  Level FlightAware
03:50PM 40.3977 -73.4468 215° Southwest 422 486 38,000  Level FlightAware ADS-B
03:51PM 40.3466 -73.4927 214° Southwest 422 486 38,000  Level FlightAware ADS-B
03:51PM 40.2881 -73.5450 214° Southwest 421 484 38,000  Level FlightAware ADS-B
03:52PM 40.2187 -73.6071 214° Southwest 420 483 38,000  Level FlightAware ADS-B
03:53PM 40.1643 -73.6556 214° Southwest 420 483 38,000  Level FlightAware ADS-B
03:53PM 40.0914 -73.7204 214° Southwest 420 483 38,000  Level FlightAware ADS-B
03:54PM 40.0425 -73.7638 214° Southwest 420 483 38,000  Level FlightAware ADS-B
03:55PM 39.9872 -73.8127 214° Southwest 421 484 38,000  Level FlightAware ADS-B
03:55PM 39.9383 -73.8559 214° Southwest 423 487 38,000  Level FlightAware ADS-B
03:56PM 39.8835 -73.9042 214° Southwest 425 489 38,000  Level FlightAware ADS-B
03:56PM 39.8226 -73.9579 214° Southwest 426 490 38,000  Level FlightAware ADS-B
03:57PM 39.7720 -74.0030 214° Southwest 427 491 38,000  Level FlightAware
03:57PM 39.7132 -74.0539 214° Southwest 426 490 38,000  Level FlightAware ADS-B
03:58PM 39.6564 -74.1036 214° Southwest 424 488 38,000  Level FlightAware ADS-B
03:58PM 39.6069 -74.1468 214° Southwest 422 486 38,000  Level FlightAware ADS-B
03:59PM 39.5345 -74.2100 214° Southwest 426 490 38,000  Level FlightAware ADS-B
04:00PM 39.4846 -74.2534 214° Southwest 426 490 38,000  Level FlightAware ADS-B
04:00PM 39.4334 -74.2979 214° Southwest 425 489 38,000  Level FlightAware ADS-B
04:01PM 39.3830 -74.3416 214° Southwest 425 489 38,000  Level FlightAware ADS-B
04:01PM 39.3331 -74.3846 214° Southwest 427 491 38,000  Level FlightAware ADS-B
04:02PM 39.2835 -74.4276 214° Southwest 427 491 38,000  Level FlightAware ADS-B
04:02PM 39.2337 -74.4704 214° Southwest 428 493 38,000  Level FlightAware ADS-B
04:03PM 39.1842 -74.5130 214° Southwest 428 493 38,000  Level FlightAware ADS-B
04:03PM 39.1289 -74.5605 214° Southwest 430 495 38,000  Level FlightAware ADS-B
04:04PM 39.0611 -74.6187 214° Southwest 431 496 38,000  Level FlightAware ADS-B
04:05PM 38.9987 -74.6719 214° Southwest 433 498 38,000  Level FlightAware ADS-B
04:05PM 38.9583 -74.7059 213° Southwest 436 502 38,000  Level FlightAware ADS-B
04:06PM 38.8993 -74.7421 206° Southwest 442 509 38,000  Level FlightAware ADS-B
04:06PM 38.8365 -74.7764 203° Southwest 446 513 38,000  Level FlightAware ADS-B
04:07PM 38.7562 -74.8234 205° Southwest 445 512 38,000  Level FlightAware ADS-B
04:07PM 38.7010 -74.8653 211° Southwest 440 506 38,000  Level FlightAware ADS-B
04:08PM 38.6480 -74.9050 210° Southwest 441 507 38,000  Level FlightAware
04:08PM 38.5887 -74.9500 211° Southwest 442 509 38,000  Level FlightAware ADS-B
04:09PM 38.5349 -74.9906 211° Southwest 444 511 38,000  Level FlightAware ADS-B
04:09PM 38.4814 -75.0311 211° Southwest 444 511 38,000  Level FlightAware ADS-B
04:10PM 38.3870 -75.1020 210° Southwest 445 512 38,000  Level FlightAware
04:11PM 38.3583 -75.1238 211° Southwest 445 512 38,000  Level FlightAware ADS-B
04:11PM 38.3024 -75.1657 210° Southwest 445 512 38,000  Level FlightAware ADS-B
04:12PM 38.2455 -75.2084 211° Southwest 443 510 38,000  Level FlightAware ADS-B
04:13PM 38.1480 -75.2810 210° Southwest 435 501 38,000  Level FlightAware
04:13PM 38.0658 -75.3425 211° Southwest 443 510 38,000  Level FlightAware ADS-B
04:14PM 38.0111 -75.3832 210° Southwest 443 510 38,000  Level FlightAware ADS-B
04:14PM 37.9567 -75.4235 210° Southwest 443 510 38,000  Level FlightAware ADS-B
04:15PM 37.8968 -75.4680 210° Southwest 443 510 38,000  Level FlightAware ADS-B
04:16PM 37.8350 -75.5140 210° Southwest 435 501 38,000  Level FlightAware
04:16PM 37.7939 -75.5441 210° Southwest 443 510 38,000  Level FlightAware ADS-B
04:16PM 37.7408 -75.5833 210° Southwest 443 510 38,000  Level FlightAware ADS-B
04:17PM 37.6854 -75.6240 210° Southwest 442 509 38,000  Level FlightAware ADS-B
04:17PM 37.6310 -75.6641 210° Southwest 444 511 38,000  Level FlightAware ADS-B
04:18PM 37.5749 -75.7052 210° Southwest 445 512 38,000  Level FlightAware ADS-B
04:18PM 37.5195 -75.7458 210° Southwest 445 512 38,000  Level FlightAware ADS-B
04:20PM 37.4110 -75.8250 210° Southwest 447 514 38,000  Level FlightAware
04:20PM 37.3550 -75.8660 210° Southwest 447 514 38,000  Level FlightAware
04:21PM 37.2870 -75.9150 210° Southwest 448 516 38,000  Level FlightAware
04:21PM 37.2220 -75.9620 210° Southwest 450 518 38,000  Level FlightAware
04:21PM 37.1977 -75.9801 211° Southwest 451 519 38,000  Level FlightAware ADS-B
04:22PM 37.1432 -76.0195 210° Southwest 453 521 38,000  Level FlightAware ADS-B
04:23PM 37.0793 -76.0656 210° Southwest 454 522 38,000  Level FlightAware ADS-B
04:23PM 37.0191 -76.1090 210° Southwest 455 524 38,000  Level FlightAware ADS-B
04:24PM 36.9297 -76.1731 210° Southwest 455 524 38,000  Level FlightAware ADS-B
04:25PM 36.8210 -76.2150 197° South 464 534 38,000  Level FlightAware
04:25PM 36.7550 -76.2340 193° South 464 534 38,000  Level FlightAware
04:27PM 36.5150 -76.3090 194° South 449 517 38,000  Level FlightAware
04:28PM 36.4360 -76.3330 194° South 451 519 38,000  Level FlightAware
04:28PM 36.4080 -76.3470 202° Southwest 433 498 38,000  Level FlightAware
04:29PM 36.3560 -76.3870 212° Southwest 434 499 38,000  Level FlightAware
04:29PM 36.2870 -76.4390 211° Southwest 435 501 38,000  Level FlightAware
04:30PM 36.2440 -76.4730 213° Southwest 436 502 38,000  Level FlightAware
04:30PM 36.1740 -76.5260 211° Southwest 436 502 38,000  Level FlightAware
04:31PM 36.1130 -76.5720 211° Southwest 436 502 38,000  Level FlightAware
04:32PM 36.0470 -76.6220 211° Southwest 436 502 38,000  Level FlightAware
04:32PM 35.9720 -76.6790 212° Southwest 436 502 38,000  Level FlightAware
04:33PM 35.8830 -76.7460 211° Southwest 437 503 38,000  Level FlightAware
04:34PM 35.8300 -76.7850 211° Southwest 437 503 38,000  Level FlightAware
04:35PM 35.7770 -76.8240 211° Southwest 437 503 38,000  Level FlightAware
04:35PM 35.7240 -76.8640 211° Southwest 437 503 38,000  Level FlightAware
04:36PM 35.6333 -76.9286 211° Southwest 440 506 38,000  Level Washington Center
04:37PM 35.5447 -76.9986 213° Southwest 431 496 38,000  Level Washington Center
04:38PM 35.4417 -77.0758 211° Southwest 436 502 38,000  Level Washington Center
04:39PM 35.3383 -77.1503 210° Southwest 436 502 38,000  Level Washington Center
04:40PM 35.2353 -77.2297 212° Southwest 436 502 38,000  Level Washington Center
04:41PM 35.1297 -77.3064 211° Southwest 436 502 38,000  Level Washington Center
04:42PM 35.0264 -77.3828 211° Southwest 436 502 38,000  Level Washington Center
04:43PM 34.9208 -77.4589 211° Southwest 436 502 38,000  Level Washington Center
04:44PM 34.8233 -77.5631 221° Southwest 436 502 38,000  Level Washington Center
04:45PM 34.7528 -77.6650 230° Southwest 429 494 38,000  Level Washington Center
04:51PM 34.0310 -78.0260 230° Southwest 461 531 38,000  Level FlightAware
04:52PM 33.9380 -78.0480 191° South 461 531 38,000  Level FlightAware
04:52PM 33.8540 -78.0700 192° South 462 532 38,000  Level FlightAware
04:53PM 33.7920 -78.0860 192° South 464 534 38,000  Level FlightAware
04:53PM 33.7140 -78.1050 191° South 467 537 38,000  Level FlightAware
04:54PM 33.6420 -78.1220 191° South 467 537 38,000  Level FlightAware
04:55PM 33.5500 -78.1460 192° South 467 537 38,000  Level FlightAware
04:56PM 33.3980 -78.1840 192° South 468 539 38,000  Level FlightAware
04:57PM 33.3210 -78.2020 191° South 468 539 38,000  Level FlightAware
04:57PM 33.2180 -78.2290 192° South 467 537 38,000  Level FlightAware
04:58PM 33.1460 -78.2460 191° South 467 537 38,000  Level FlightAware
04:59PM 33.0750 -78.2640 192° South 467 537 38,000  Level FlightAware
04:59PM 32.9750 -78.2890 192° South 467 537 38,000  Level FlightAware
05:00PM 32.9010 -78.3070 192° South 465 535 38,000  Level FlightAware
05:01PM 32.8180 -78.3270 191° South 464 534 38,000  Level FlightAware
05:01PM 32.7440 -78.3450 192° South 464 534 38,000  Level FlightAware
05:02PM 32.6840 -78.3600 192° South 463 533 38,000  Level FlightAware
05:02PM 32.6080 -78.3790 192° South 462 532 38,000  Level FlightAware
05:03PM 32.5270 -78.3980 191° South 462 532 38,000  Level FlightAware
05:04PM 32.4440 -78.4180 191° South 461 531 38,000  Level FlightAware
05:04PM 32.3780 -78.4360 193° South 461 531 38,000  Level FlightAware
05:05PM 32.3090 -78.4560 194° South 461 531 38,000  Level FlightAware
05:05PM 32.2270 -78.4810 194° South 462 532 38,000  Level FlightAware
05:06PM 32.1560 -78.5010 193° South 462 532 38,000  Level FlightAware
05:07PM 32.0910 -78.5190 193° South 462 532 38,000  Level FlightAware
05:08PM 32.0270 -78.5360 193° South 462 532 38,000  Level FlightAware
05:08PM 31.9630 -78.5530 193° South 462 532 38,000  Level FlightAware
05:09PM 31.9000 -78.5710 194° South 462 532 38,000  Level FlightAware
05:10PM 31.8340 -78.5880 192° South 462 532 38,000  Level FlightAware
05:10PM 32.2270 -78.4810 13° North 38,000  Level FlightAware
05:11PM 31.5392 -78.6831 13° North 471 542 38,000  Level Jacksonville Center
05:12PM 31.4153 -78.7178 193° South 471 542 38,000  Level Jacksonville Center
05:13PM 31.2908 -78.7503 193° South 471 542 38,000  Level Jacksonville Center
05:14PM 31.1669 -78.7872 194° South 466 536 38,000  Level Jacksonville Center
05:15PM 31.0386 -78.8267 195° South 471 542 38,000  Level Jacksonville Center
05:16PM 30.9125 -78.8589 192° South 471 542 38,000  Level Jacksonville Center
05:17PM 30.7925 -78.8928 194° South 461 531 38,000  Level Jacksonville Center
05:19PM 30.5419 -78.9625 193° South 488 562 38,000  Level Miami Center
05:20PM 30.4164 -78.9961 193° South 475 547 38,000  Level Miami Center
05:21PM 30.3011 -79.0489 202° Southwest 469 540 38,000  Level Miami Center
05:22PM 30.1753 -79.1017 200° South 469 540 38,000  Level Miami Center
05:23PM 30.0575 -79.1519 200° South 469 540 38,000  Level Miami Center
05:24PM 29.9378 -79.2139 204° Southwest 469 540 38,000  Level Miami Center
05:25PM 29.8181 -79.2686 202° Southwest 469 540 38,000  Level Miami Center
05:26PM 29.6964 -79.3136 198° South 469 540 38,000  Level Miami Center
05:27PM 29.5764 -79.3683 202° Southwest 469 540 38,000  Level Miami Center
05:33PM 28.8310 -79.6160 202° Southwest 452 520 38,000  Level FlightAware
05:33PM 28.7630 -79.6280 189° South 452 520 38,000  Level FlightAware
05:34PM 28.6500 -79.6480 189° South 454 522 38,000  Level FlightAware
05:35PM 28.5590 -79.6650 189° South 460 529 38,000  Level FlightAware
05:36PM 28.4560 -79.6820 188° South 468 539 38,000  Level FlightAware
05:36PM 28.3790 -79.6970 190° South 457 526 38,000  Level FlightAware
05:37PM 28.2980 -79.7110 189° South 467 537 38,000  Level FlightAware
05:37PM 28.2280 -79.7240 189° South 469 540 38,000  Level FlightAware
05:38PM 28.1380 -79.7400 189° South 470 541 38,000  Level FlightAware
05:39PM 28.0350 -79.7730 196° South 468 539 38,000  Level FlightAware
05:40PM 27.9660 -79.8010 200° South 466 536 38,000  Level FlightAware
05:40PM 27.8900 -79.8320 200° South 466 536 38,000  Level FlightAware
05:41PM 27.8170 -79.8620 200° South 464 534 38,000  Level FlightAware
05:41PM 27.7460 -79.8910 200° South 463 533 38,000  Level FlightAware
05:42PM 27.6770 -79.9190 200° South 461 531 38,000  Level FlightAware
05:42PM 27.6030 -79.9500 200° South 461 531 38,000  Level FlightAware
05:43PM 27.5320 -79.9780 199° South 460 529 38,000  Level FlightAware
05:44PM 27.4500 -80.0120 200° South 462 532 38,000  Level FlightAware
05:44PM 27.3840 -80.0390 200° South 463 533 38,000  Level FlightAware
05:45PM 27.2960 -80.0740 199° South 462 532 38,000  Level FlightAware
05:46PM 27.2240 -80.1030 200° South 460 529 38,000  Level FlightAware
05:46PM 27.1660 -80.1270 200° South 459 528 38,000  Level FlightAware
05:47PM 27.0810 -80.1610 200° South 464 534 38,000  Level FlightAware
05:47PM 27.0110 -80.1890 200° South 463 533 38,000  Level FlightAware
05:48PM 26.9510 -80.2130 200° South 462 532 38,000  Level FlightAware
05:48PM 26.8800 -80.2420 200° South 463 533 38,000  Level FlightAware
05:49PM 26.7990 -80.2750 200° South 462 532 38,000  Level FlightAware
05:50PM 26.7400 -80.2980 199° South 465 535 38,000  Level FlightAware
05:50PM 26.6670 -80.3270 200° South 465 535 38,000  Level FlightAware
05:51PM 26.5880 -80.3590 200° South 458 527 38,000  Level FlightAware
05:51PM 26.5250 -80.3840 200° South 461 531 38,000  Level FlightAware
05:52PM 26.4540 -80.4120 199° South 465 535 38,000  Level FlightAware
05:53PM 26.3720 -80.4450 200° South 475 547 38,000  Level FlightAware
05:53PM 26.2890 -80.4780 200° South 477 549 38,000  Level FlightAware
05:54PM 26.2160 -80.5070 200° South 477 549 38,000  Level FlightAware
05:54PM 26.1310 -80.5410 200° South 477 549 38,000  Level FlightAware
05:55PM 26.0580 -80.5700 200° South 475 547 38,000  Level FlightAware
05:56PM 25.9750 -80.6030 200° South 466 536 38,000  Level FlightAware
05:56PM 25.9130 -80.6270 199° South 465 535 38,000  Level FlightAware
05:57PM 25.8400 -80.6570 200° South 474 545 38,000  Level FlightAware
05:57PM 25.8120 -80.6740 209° Southwest 479 551 38,000  Level FlightAware
05:57PM 25.7870 -80.6970 220° Southwest 477 549 38,000  Level FlightAware
05:58PM 25.7280 -80.7590 223° Southwest 484 557 38,000  Level FlightAware
05:58PM 25.6730 -80.8170 224° Southwest 475 547 38,000  Level FlightAware
05:59PM 25.6150 -80.8760 223° Southwest 473 544 38,000  Level FlightAware
06:00PM 25.5580 -80.9350 223° Southwest 473 544 38,000  Level FlightAware
06:00PM 25.5010 -80.9950 224° Southwest 471 542 38,000  Level FlightAware
06:01PM 25.4460 -81.0520 223° Southwest 471 542 38,000  Level FlightAware
06:01PM 25.3910 -81.1080 223° Southwest 470 541 38,000  Level FlightAware
06:02PM 25.3330 -81.1680 223° Southwest 468 539 38,000  Level FlightAware
06:03PM 25.2760 -81.2270 223° Southwest 467 537 38,000  Level FlightAware
06:03PM 25.2210 -81.2830 223° Southwest 468 539 38,000  Level FlightAware
06:04PM 25.1640 -81.3410 223° Southwest 469 540 38,000  Level FlightAware
06:04PM 25.1080 -81.3990 223° Southwest 468 539 38,000  Level FlightAware
06:05PM 25.0520 -81.4560 223° Southwest 466 536 38,000  Level FlightAware
06:06PM 24.9890 -81.5210 223° Southwest 464 534 38,000 -180 Level FlightAware
06:06PM 24.9330 -81.5770 222° Southwest 465 535 37,800 -840 Descending FlightAware
06:07PM 24.8690 -81.6430 223° Southwest 467 537 37,000 -1,200 Descending FlightAware
06:07PM 24.8140 -81.6990 223° Southwest 481 554 36,300 -1,380 Descending FlightAware
06:08PM 24.7540 -81.7590 222° Southwest 484 557 35,400 -1,860 Descending FlightAware
06:08PM 24.7040 -81.8110 223° Southwest 488 562 34,300 -1,800 Descending FlightAware
06:09PM 24.6450 -81.8700 222° Southwest 479 551 33,500 -1,680 Descending FlightAware
06:10PM 24.5910 -81.9250 223° Southwest 469 540 32,400 -1,860 Descending FlightAware
06:10PM 24.5260 -81.9900 222° Southwest 465 535 31,200 -1,980 Descending FlightAware
06:11PM 24.4770 -82.0400 223° Southwest 461 531 30,100 -1,800 Descending FlightAware
06:11PM 24.4240 -82.0930 222° Southwest 442 509 29,300 -2,100 Descending FlightAware
06:12PM 24.3710 -82.1470 223° Southwest 456 525 27,700 -2,700 Descending FlightAware
06:13PM 24.2990 -82.2200 223° Southwest 464 534 25,700 -1,560 Descending FlightAware
06:13PM 24.2420 -82.2760 222° Southwest 460 529 25,500 -2,700 Descending FlightAware
06:14PM 24.1830 -82.3360 223° Southwest 426 490 22,300 -2,640 Descending FlightAware
06:15PM 24.1350 -82.3850 223° Southwest 426 490 22,300 -240 Level FlightAware
06:15PM 24.0880 -82.4320 222° Southwest 403 464 22,000 -600 Descending FlightAware
06:16PM 24.0380 -82.4800 221° Southwest 375 432 21,600 -360 Descending FlightAware
06:16PM 23.9990 -82.5190 222° Southwest 375 432 21,600  Level FlightAware
06:17PM 23.9590 -82.5580 222° Southwest 375 432 21,600  Level FlightAware
06:18PM 23.9190 -82.5980 222° Southwest 375 432 21,600  Level FlightAware
06:18PM 23.8780 -82.6380 222° Southwest 375 432 21,600  Level FlightAware
06:19PM 23.8380 -82.6780 222° Southwest 375 432 21,600  Level FlightAware
06:25PM 23.1703 -82.4662 164° South  Level Estimated
06:26PM 23.0514 -82.4287 164° South  Level Estimated
06:27PM 22.9891 -82.4091 164° South  Level Estimated
06:28PM 22.9891 -82.4091 51° Northeast  Level Estimated
06:29PM 22.9891 -82.4091 51° Northeast  Level Estimated
06:30PM 22.9891 -82.4091 51° Northeast  Level Estimated
06:31PM 22.9891 -82.4091 51° Northeast  Level Estimated
06:32PM 22.9891 -82.4091 51° Northeast  Level Estimated
06:33PM 22.9891 -82.4091 51° Northeast  Level Estimated
06:34PM 22.9891 -82.4091 51° Northeast  Level Estimated
06:35PM 22.9891 -82.4091 51° Northeast  Level Estimated
06:36PM 22.9891 -82.4091 51° Northeast  Level Estimated
06:37PM 22.9891 -82.4091 51° Northeast  Level Estimated
06:38PM 22.9891 -82.4091 51° Northeast  Level Estimated
06:39PM 22.9891 -82.4091 51° Northeast  Level Estimated
06:40PM 22.9891 -82.4091 51° Northeast  Level Estimated
06:41PM 22.9891 -82.4091 51° Northeast  Level Estimated
06:42PM 22.9891 -82.4091 51° Northeast  Level Estimated
06:43PM 22.9891 -82.4091 51° Northeast  Level Estimated
06:44PM 22.9891 -82.4091 51° Northeast  Level Estimated
06:45PM 22.9891 -82.4091 51° Northeast  Level Estimated
06:46PM 22.9891 -82.4091 51° Northeast  Level Estimated
06:47PM 22.9891 -82.4091 51° Northeast  Level Estimated
06:48PM 22.9891 -82.4091 51° Northeast  Level Estimated